sensor_id;sensor_type;location;lat;lon;timestamp;P1;durP1;ratioP1;P2;durP2;ratioP2
42702;SDS011;28341;52.064;4.920;2024-02-15T00:00:13;22.00;;;7.85;;
42702;SDS011;28341;52.064;4.920;2024-02-15T00:02:19;22.70;;;8.63;;
42702;SDS011;28341;52.064;4.920;2024-02-15T00:04:23;22.17;;;7.82;;
42702;SDS011;28341;52.064;4.920;2024-02-15T00:06:28;20.65;;;8.07;;
42702;SDS011;28341;52.064;4.920;2024-02-15T00:08:32;17.70;;;7.55;;
42702;SDS011;28341;52.064;4.920;2024-02-15T00:10:36;20.92;;;7.90;;
42702;SDS011;28341;52.064;4.920;2024-02-15T00:12:41;20.60;;;8.80;;
42702;SDS011;28341;52.064;4.920;2024-02-15T00:14:45;17.05;;;8.05;;
42702;SDS011;28341;52.064;4.920;2024-02-15T00:16:52;15.43;;;7.78;;
42702;SDS011;28341;52.064;4.920;2024-02-15T00:18:55;21.75;;;8.18;;
42702;SDS011;28341;52.064;4.920;2024-02-15T00:21:00;17.65;;;7.93;;
42702;SDS011;28341;52.064;4.920;2024-02-15T00:23:04;18.15;;;7.88;;
42702;SDS011;28341;52.064;4.920;2024-02-15T00:25:09;15.13;;;7.20;;
42702;SDS011;28341;52.064;4.920;2024-02-15T00:27:14;21.92;;;7.97;;
42702;SDS011;28341;52.064;4.920;2024-02-15T00:29:18;15.52;;;7.18;;
42702;SDS011;28341;52.064;4.920;2024-02-15T00:31:23;15.50;;;7.47;;
42702;SDS011;28341;52.064;4.920;2024-02-15T00:33:30;15.98;;;6.75;;
42702;SDS011;28341;52.064;4.920;2024-02-15T00:35:32;13.45;;;7.13;;
42702;SDS011;28341;52.064;4.920;2024-02-15T00:37:36;15.23;;;7.22;;
42702;SDS011;28341;52.064;4.920;2024-02-15T00:39:40;13.85;;;6.30;;
42702;SDS011;28341;52.064;4.920;2024-02-15T00:41:45;16.80;;;7.60;;
42702;SDS011;28341;52.064;4.920;2024-02-15T00:43:50;18.85;;;7.70;;
42702;SDS011;28341;52.064;4.920;2024-02-15T00:45:54;18.02;;;6.90;;
42702;SDS011;28341;52.064;4.920;2024-02-15T00:48:00;18.30;;;7.20;;
42702;SDS011;28341;52.064;4.920;2024-02-15T00:50:09;13.18;;;6.90;;
42702;SDS011;28341;52.064;4.920;2024-02-15T00:52:13;15.52;;;6.90;;
42702;SDS011;28341;52.064;4.920;2024-02-15T00:54:18;16.10;;;6.72;;
42702;SDS011;28341;52.064;4.920;2024-02-15T00:56:23;19.92;;;7.50;;
42702;SDS011;28341;52.064;4.920;2024-02-15T00:58:28;14.90;;;6.45;;
42702;SDS011;28341;52.064;4.920;2024-02-15T01:00:32;15.30;;;7.18;;
42702;SDS011;28341;52.064;4.920;2024-02-15T01:02:36;16.05;;;7.28;;
42702;SDS011;28341;52.064;4.920;2024-02-15T01:04:41;20.40;;;8.07;;
42702;SDS011;28341;52.064;4.920;2024-02-15T01:06:46;11.02;;;7.72;;
42702;SDS011;28341;52.064;4.920;2024-02-15T01:08:50;14.27;;;7.88;;
42702;SDS011;28341;52.064;4.920;2024-02-15T01:10:54;18.88;;;9.18;;
42702;SDS011;28341;52.064;4.920;2024-02-15T01:12:59;17.30;;;8.68;;
42702;SDS011;28341;52.064;4.920;2024-02-15T01:15:04;16.00;;;8.73;;
42702;SDS011;28341;52.064;4.920;2024-02-15T01:17:09;18.58;;;9.45;;
42702;SDS011;28341;52.064;4.920;2024-02-15T01:19:13;17.30;;;9.57;;
42702;SDS011;28341;52.064;4.920;2024-02-15T01:21:18;16.23;;;8.65;;
42702;SDS011;28341;52.064;4.920;2024-02-15T01:23:25;17.65;;;9.70;;
42702;SDS011;28341;52.064;4.920;2024-02-15T01:25:29;26.17;;;10.27;;
42702;SDS011;28341;52.064;4.920;2024-02-15T01:27:33;20.98;;;10.70;;
42702;SDS011;28341;52.064;4.920;2024-02-15T01:29:36;20.88;;;11.73;;
42702;SDS011;28341;52.064;4.920;2024-02-15T01:31:42;18.85;;;11.43;;
42702;SDS011;28341;52.064;4.920;2024-02-15T01:33:46;25.02;;;11.70;;
42702;SDS011;28341;52.064;4.920;2024-02-15T01:35:51;24.05;;;12.40;;
42702;SDS011;28341;52.064;4.920;2024-02-15T01:37:56;21.70;;;12.55;;
42702;SDS011;28341;52.064;4.920;2024-02-15T01:40:04;25.00;;;13.55;;
42702;SDS011;28341;52.064;4.920;2024-02-15T01:42:13;18.83;;;13.05;;
42702;SDS011;28341;52.064;4.920;2024-02-15T01:44:17;27.20;;;13.88;;
42702;SDS011;28341;52.064;4.920;2024-02-15T01:46:22;22.00;;;14.45;;
42702;SDS011;28341;52.064;4.920;2024-02-15T01:48:26;23.92;;;15.05;;
42702;SDS011;28341;52.064;4.920;2024-02-15T01:50:28;21.85;;;14.27;;
42702;SDS011;28341;52.064;4.920;2024-02-15T01:52:33;27.08;;;15.80;;
42702;SDS011;28341;52.064;4.920;2024-02-15T01:54:38;25.30;;;15.88;;
42702;SDS011;28341;52.064;4.920;2024-02-15T01:56:45;25.73;;;16.10;;
42702;SDS011;28341;52.064;4.920;2024-02-15T01:58:50;27.83;;;17.05;;
42702;SDS011;28341;52.064;4.920;2024-02-15T02:00:54;24.58;;;16.05;;
42702;SDS011;28341;52.064;4.920;2024-02-15T02:02:59;26.65;;;16.55;;
42702;SDS011;28341;52.064;4.920;2024-02-15T02:05:08;28.02;;;17.05;;
42702;SDS011;28341;52.064;4.920;2024-02-15T02:07:13;29.40;;;18.02;;
42702;SDS011;28341;52.064;4.920;2024-02-15T02:09:17;34.63;;;17.25;;
42702;SDS011;28341;52.064;4.920;2024-02-15T02:11:19;26.35;;;18.02;;
42702;SDS011;28341;52.064;4.920;2024-02-15T02:13:26;26.10;;;17.13;;
42702;SDS011;28341;52.064;4.920;2024-02-15T02:15:31;29.38;;;17.83;;
42702;SDS011;28341;52.064;4.920;2024-02-15T02:17:37;29.55;;;18.50;;
42702;SDS011;28341;52.064;4.920;2024-02-15T02:19:42;27.58;;;18.15;;
42702;SDS011;28341;52.064;4.920;2024-02-15T02:21:44;31.02;;;18.55;;
42702;SDS011;28341;52.064;4.920;2024-02-15T02:23:52;28.55;;;17.50;;
42702;SDS011;28341;52.064;4.920;2024-02-15T02:26:02;25.95;;;17.65;;
42702;SDS011;28341;52.064;4.920;2024-02-15T02:28:07;26.35;;;18.50;;
42702;SDS011;28341;52.064;4.920;2024-02-15T02:30:13;33.00;;;17.80;;
42702;SDS011;28341;52.064;4.920;2024-02-15T02:32:17;25.70;;;17.40;;
42702;SDS011;28341;52.064;4.920;2024-02-15T02:34:22;29.65;;;17.55;;
42702;SDS011;28341;52.064;4.920;2024-02-15T02:36:26;27.15;;;17.20;;
42702;SDS011;28341;52.064;4.920;2024-02-15T02:38:32;23.20;;;16.85;;
42702;SDS011;28341;52.064;4.920;2024-02-15T02:40:34;23.48;;;16.05;;
42702;SDS011;28341;52.064;4.920;2024-02-15T02:42:49;27.00;;;16.52;;
42702;SDS011;28341;52.064;4.920;2024-02-15T02:45:00;27.90;;;15.85;;
42702;SDS011;28341;52.064;4.920;2024-02-15T02:47:05;28.35;;;16.50;;
42702;SDS011;28341;52.064;4.920;2024-02-15T02:49:09;26.83;;;15.23;;
42702;SDS011;28341;52.064;4.920;2024-02-15T02:51:11;24.53;;;15.87;;
42702;SDS011;28341;52.064;4.920;2024-02-15T02:53:16;23.88;;;14.20;;
42702;SDS011;28341;52.064;4.920;2024-02-15T02:55:20;26.08;;;15.27;;
42702;SDS011;28341;52.064;4.920;2024-02-15T02:57:27;27.83;;;15.45;;
42702;SDS011;28341;52.064;4.920;2024-02-15T02:59:35;31.17;;;15.95;;
42702;SDS011;28341;52.064;4.920;2024-02-15T03:01:40;24.48;;;14.93;;
42702;SDS011;28341;52.064;4.920;2024-02-15T03:03:44;24.77;;;15.05;;
42702;SDS011;28341;52.064;4.920;2024-02-15T03:05:49;27.23;;;14.77;;
42702;SDS011;28341;52.064;4.920;2024-02-15T03:07:50;23.05;;;13.85;;
42702;SDS011;28341;52.064;4.920;2024-02-15T03:09:55;24.67;;;14.43;;
42702;SDS011;28341;52.064;4.920;2024-02-15T03:11:57;25.67;;;14.73;;
42702;SDS011;28341;52.064;4.920;2024-02-15T03:14:01;25.58;;;13.90;;
42702;SDS011;28341;52.064;4.920;2024-02-15T03:16:08;25.73;;;14.05;;
42702;SDS011;28341;52.064;4.920;2024-02-15T03:18:13;27.17;;;13.95;;
42702;SDS011;28341;52.064;4.920;2024-02-15T03:20:18;27.58;;;14.65;;
42702;SDS011;28341;52.064;4.920;2024-02-15T03:22:27;24.77;;;13.43;;
42702;SDS011;28341;52.064;4.920;2024-02-15T03:24:32;21.75;;;12.90;;
42702;SDS011;28341;52.064;4.920;2024-02-15T03:26:37;27.85;;;13.38;;
42702;SDS011;28341;52.064;4.920;2024-02-15T03:28:42;27.85;;;13.73;;
42702;SDS011;28341;52.064;4.920;2024-02-15T03:30:47;28.88;;;13.20;;
42702;SDS011;28341;52.064;4.920;2024-02-15T03:32:55;25.15;;;12.23;;
42702;SDS011;28341;52.064;4.920;2024-02-15T03:35:00;25.95;;;13.48;;
42702;SDS011;28341;52.064;4.920;2024-02-15T03:37:05;29.98;;;12.65;;
42702;SDS011;28341;52.064;4.920;2024-02-15T03:39:10;24.48;;;12.75;;
42702;SDS011;28341;52.064;4.920;2024-02-15T03:41:14;22.90;;;13.02;;
42702;SDS011;28341;52.064;4.920;2024-02-15T03:43:18;31.05;;;13.10;;
42702;SDS011;28341;52.064;4.920;2024-02-15T03:45:23;26.92;;;13.75;;
42702;SDS011;28341;52.064;4.920;2024-02-15T03:47:28;28.25;;;12.00;;
42702;SDS011;28341;52.064;4.920;2024-02-15T03:49:36;24.52;;;12.63;;
42702;SDS011;28341;52.064;4.920;2024-02-15T03:51:41;23.60;;;12.23;;
42702;SDS011;28341;52.064;4.920;2024-02-15T03:53:46;20.27;;;12.02;;
42702;SDS011;28341;52.064;4.920;2024-02-15T03:55:49;20.50;;;11.73;;
42702;SDS011;28341;52.064;4.920;2024-02-15T03:57:54;22.30;;;12.20;;
42702;SDS011;28341;52.064;4.920;2024-02-15T03:59:58;23.15;;;12.02;;
42702;SDS011;28341;52.064;4.920;2024-02-15T04:02:10;26.08;;;12.20;;
42702;SDS011;28341;52.064;4.920;2024-02-15T04:04:15;27.38;;;11.20;;
42702;SDS011;28341;52.064;4.920;2024-02-15T04:06:24;19.85;;;11.93;;
42702;SDS011;28341;52.064;4.920;2024-02-15T04:08:31;25.63;;;12.32;;
42702;SDS011;28341;52.064;4.920;2024-02-15T04:10:39;22.35;;;10.93;;
42702;SDS011;28341;52.064;4.920;2024-02-15T04:12:45;17.35;;;10.50;;
42702;SDS011;28341;52.064;4.920;2024-02-15T04:14:50;27.05;;;12.07;;
42702;SDS011;28341;52.064;4.920;2024-02-15T04:16:55;26.02;;;11.90;;
42702;SDS011;28341;52.064;4.920;2024-02-15T04:18:59;25.58;;;12.07;;
42702;SDS011;28341;52.064;4.920;2024-02-15T04:21:04;24.67;;;11.65;;
42702;SDS011;28341;52.064;4.920;2024-02-15T04:23:11;22.92;;;11.75;;
42702;SDS011;28341;52.064;4.920;2024-02-15T04:25:16;31.80;;;12.25;;
42702;SDS011;28341;52.064;4.920;2024-02-15T04:27:23;22.90;;;11.93;;
42702;SDS011;28341;52.064;4.920;2024-02-15T04:29:27;22.63;;;11.93;;
42702;SDS011;28341;52.064;4.920;2024-02-15T04:31:32;25.95;;;13.15;;
42702;SDS011;28341;52.064;4.920;2024-02-15T04:33:37;28.52;;;12.68;;
42702;SDS011;28341;52.064;4.920;2024-02-15T04:35:42;25.92;;;11.85;;
42702;SDS011;28341;52.064;4.920;2024-02-15T04:37:46;29.27;;;13.25;;
42702;SDS011;28341;52.064;4.920;2024-02-15T04:39:54;24.75;;;13.18;;
42702;SDS011;28341;52.064;4.920;2024-02-15T04:41:59;26.13;;;12.63;;
42702;SDS011;28341;52.064;4.920;2024-02-15T04:44:03;21.23;;;13.18;;
42702;SDS011;28341;52.064;4.920;2024-02-15T04:46:12;26.75;;;14.05;;
42702;SDS011;28341;52.064;4.920;2024-02-15T04:48:17;24.17;;;14.05;;
42702;SDS011;28341;52.064;4.920;2024-02-15T04:50:23;24.90;;;13.82;;
42702;SDS011;28341;52.064;4.920;2024-02-15T04:52:26;28.27;;;14.38;;
42702;SDS011;28341;52.064;4.920;2024-02-15T04:54:30;21.75;;;14.90;;
42702;SDS011;28341;52.064;4.920;2024-02-15T04:56:35;24.95;;;14.65;;
42702;SDS011;28341;52.064;4.920;2024-02-15T04:58:40;22.65;;;14.55;;
42702;SDS011;28341;52.064;4.920;2024-02-15T05:00:47;24.17;;;15.23;;
42702;SDS011;28341;52.064;4.920;2024-02-15T05:02:55;27.45;;;16.30;;
42702;SDS011;28341;52.064;4.920;2024-02-15T05:04:59;27.85;;;15.13;;
42702;SDS011;28341;52.064;4.920;2024-02-15T05:07:03;23.77;;;16.27;;
42702;SDS011;28341;52.064;4.920;2024-02-15T05:09:08;25.75;;;16.50;;
42702;SDS011;28341;52.064;4.920;2024-02-15T05:11:13;22.98;;;15.77;;
42702;SDS011;28341;52.064;4.920;2024-02-15T05:13:23;23.23;;;16.08;;
42702;SDS011;28341;52.064;4.920;2024-02-15T05:15:28;26.13;;;17.00;;
42702;SDS011;28341;52.064;4.920;2024-02-15T05:17:33;29.45;;;17.70;;
42702;SDS011;28341;52.064;4.920;2024-02-15T05:19:35;23.60;;;17.45;;
42702;SDS011;28341;52.064;4.920;2024-02-15T05:21:39;30.50;;;18.70;;
42702;SDS011;28341;52.064;4.920;2024-02-15T05:23:45;25.92;;;17.35;;
42702;SDS011;28341;52.064;4.920;2024-02-15T05:25:49;28.77;;;17.50;;
42702;SDS011;28341;52.064;4.920;2024-02-15T05:27:54;32.95;;;18.33;;
42702;SDS011;28341;52.064;4.920;2024-02-15T05:30:01;26.27;;;17.85;;
42702;SDS011;28341;52.064;4.920;2024-02-15T05:32:09;26.67;;;19.15;;
42702;SDS011;28341;52.064;4.920;2024-02-15T05:34:15;28.02;;;19.10;;
42702;SDS011;28341;52.064;4.920;2024-02-15T05:36:20;33.95;;;19.40;;
42702;SDS011;28341;52.064;4.920;2024-02-15T05:38:25;33.20;;;18.23;;
42702;SDS011;28341;52.064;4.920;2024-02-15T05:40:31;31.48;;;18.95;;
42702;SDS011;28341;52.064;4.920;2024-02-15T05:42:36;30.42;;;17.95;;
42702;SDS011;28341;52.064;4.920;2024-02-15T05:44:40;33.47;;;19.20;;
42702;SDS011;28341;52.064;4.920;2024-02-15T05:46:47;33.42;;;19.95;;
42702;SDS011;28341;52.064;4.920;2024-02-15T05:48:52;27.83;;;19.00;;
42702;SDS011;28341;52.064;4.920;2024-02-15T05:50:56;36.92;;;19.98;;
42702;SDS011;28341;52.064;4.920;2024-02-15T05:53:01;34.33;;;18.55;;
42702;SDS011;28341;52.064;4.920;2024-02-15T05:55:04;33.90;;;19.15;;
42702;SDS011;28341;52.064;4.920;2024-02-15T05:57:09;33.17;;;19.25;;
42702;SDS011;28341;52.064;4.920;2024-02-15T05:59:15;34.42;;;19.90;;
42702;SDS011;28341;52.064;4.920;2024-02-15T06:01:20;28.98;;;18.80;;
42702;SDS011;28341;52.064;4.920;2024-02-15T06:03:28;28.05;;;18.80;;
42702;SDS011;28341;52.064;4.920;2024-02-15T06:05:33;32.15;;;18.90;;
42702;SDS011;28341;52.064;4.920;2024-02-15T06:07:35;31.42;;;18.98;;
42702;SDS011;28341;52.064;4.920;2024-02-15T06:09:40;36.05;;;19.65;;
42702;SDS011;28341;52.064;4.920;2024-02-15T06:11:44;32.65;;;19.60;;
42702;SDS011;28341;52.064;4.920;2024-02-15T06:13:51;35.42;;;18.58;;
42702;SDS011;28341;52.064;4.920;2024-02-15T06:15:56;99.78;;;76.72;;
42702;SDS011;28341;52.064;4.920;2024-02-15T06:18:00;145.40;;;111.43;;
42702;SDS011;28341;52.064;4.920;2024-02-15T06:20:13;63.92;;;47.75;;
42702;SDS011;28341;52.064;4.920;2024-02-15T06:22:18;60.08;;;40.92;;
42702;SDS011;28341;52.064;4.920;2024-02-15T06:24:23;35.90;;;23.40;;
42702;SDS011;28341;52.064;4.920;2024-02-15T06:26:28;32.38;;;20.90;;
42702;SDS011;28341;52.064;4.920;2024-02-15T06:28:30;26.55;;;19.73;;
42702;SDS011;28341;52.064;4.920;2024-02-15T06:30:47;27.02;;;19.40;;
42702;SDS011;28341;52.064;4.920;2024-02-15T06:33:03;29.00;;;20.23;;
42702;SDS011;28341;52.064;4.920;2024-02-15T06:35:38;30.23;;;19.27;;
42702;SDS011;28341;52.064;4.920;2024-02-15T06:37:54;28.40;;;18.73;;
42702;SDS011;28341;52.064;4.920;2024-02-15T06:40:11;28.20;;;19.65;;
42702;SDS011;28341;52.064;4.920;2024-02-15T06:42:17;26.08;;;19.20;;
42702;SDS011;28341;52.064;4.920;2024-02-15T06:44:22;26.95;;;19.33;;
42702;SDS011;28341;52.064;4.920;2024-02-15T06:46:27;25.95;;;19.42;;
42702;SDS011;28341;52.064;4.920;2024-02-15T06:48:31;28.85;;;20.40;;
42702;SDS011;28341;52.064;4.920;2024-02-15T06:50:38;26.77;;;20.10;;
42702;SDS011;28341;52.064;4.920;2024-02-15T06:52:42;24.77;;;18.95;;
42702;SDS011;28341;52.064;4.920;2024-02-15T06:54:49;25.23;;;18.38;;
42702;SDS011;28341;52.064;4.920;2024-02-15T06:56:54;23.08;;;19.02;;
42702;SDS011;28341;52.064;4.920;2024-02-15T06:58:59;24.13;;;17.98;;
42702;SDS011;28341;52.064;4.920;2024-02-15T07:01:03;21.13;;;17.38;;
42702;SDS011;28341;52.064;4.920;2024-02-15T07:03:08;24.85;;;18.20;;
42702;SDS011;28341;52.064;4.920;2024-02-15T07:05:13;21.55;;;17.77;;
42702;SDS011;28341;52.064;4.920;2024-02-15T07:07:20;26.88;;;18.67;;
42702;SDS011;28341;52.064;4.920;2024-02-15T07:09:25;21.48;;;17.75;;
42702;SDS011;28341;52.064;4.920;2024-02-15T07:11:28;21.90;;;17.33;;
42702;SDS011;28341;52.064;4.920;2024-02-15T07:13:32;23.33;;;19.45;;
42702;SDS011;28341;52.064;4.920;2024-02-15T07:15:37;25.42;;;18.52;;
42702;SDS011;28341;52.064;4.920;2024-02-15T07:17:42;23.45;;;18.98;;
42702;SDS011;28341;52.064;4.920;2024-02-15T07:19:46;24.40;;;19.55;;
42702;SDS011;28341;52.064;4.920;2024-02-15T07:21:51;24.35;;;19.02;;
42702;SDS011;28341;52.064;4.920;2024-02-15T07:23:59;22.15;;;17.90;;
42702;SDS011;28341;52.064;4.920;2024-02-15T07:26:01;21.42;;;18.35;;
42702;SDS011;28341;52.064;4.920;2024-02-15T07:28:06;22.65;;;18.27;;
42702;SDS011;28341;52.064;4.920;2024-02-15T07:30:11;21.48;;;17.42;;
42702;SDS011;28341;52.064;4.920;2024-02-15T07:32:17;20.38;;;16.45;;
42702;SDS011;28341;52.064;4.920;2024-02-15T07:34:21;23.77;;;17.80;;
42702;SDS011;28341;52.064;4.920;2024-02-15T07:36:23;20.70;;;16.80;;
42702;SDS011;28341;52.064;4.920;2024-02-15T07:38:27;20.77;;;17.27;;
42702;SDS011;28341;52.064;4.920;2024-02-15T07:40:37;22.00;;;17.10;;
42702;SDS011;28341;52.064;4.920;2024-02-15T07:42:41;23.48;;;17.88;;
42702;SDS011;28341;52.064;4.920;2024-02-15T07:44:46;20.77;;;16.38;;
42702;SDS011;28341;52.064;4.920;2024-02-15T07:46:50;21.73;;;16.60;;
42702;SDS011;28341;52.064;4.920;2024-02-15T07:48:55;22.65;;;17.52;;
42702;SDS011;28341;52.064;4.920;2024-02-15T07:50:57;23.10;;;17.55;;
42702;SDS011;28341;52.064;4.920;2024-02-15T07:53:01;20.77;;;15.82;;
42702;SDS011;28341;52.064;4.920;2024-02-15T07:55:07;21.60;;;16.67;;
42702;SDS011;28341;52.064;4.920;2024-02-15T07:57:14;24.27;;;17.10;;
42702;SDS011;28341;52.064;4.920;2024-02-15T07:59:18;20.80;;;16.65;;
42702;SDS011;28341;52.064;4.920;2024-02-15T08:01:22;23.48;;;16.48;;
42702;SDS011;28341;52.064;4.920;2024-02-15T08:03:27;22.25;;;16.23;;
42702;SDS011;28341;52.064;4.920;2024-02-15T08:05:31;24.92;;;17.20;;
42702;SDS011;28341;52.064;4.920;2024-02-15T08:07:36;22.40;;;15.18;;
42702;SDS011;28341;52.064;4.920;2024-02-15T08:09:41;21.88;;;15.20;;
42702;SDS011;28341;52.064;4.920;2024-02-15T08:11:45;22.23;;;15.25;;
42702;SDS011;28341;52.064;4.920;2024-02-15T08:13:52;22.67;;;15.13;;
42702;SDS011;28341;52.064;4.920;2024-02-15T08:15:59;22.25;;;14.88;;
42702;SDS011;28341;52.064;4.920;2024-02-15T08:18:05;20.73;;;13.80;;
42702;SDS011;28341;52.064;4.920;2024-02-15T08:20:13;18.25;;;12.73;;
42702;SDS011;28341;52.064;4.920;2024-02-15T08:22:21;17.00;;;12.02;;
42702;SDS011;28341;52.064;4.920;2024-02-15T08:24:24;18.27;;;12.63;;
42702;SDS011;28341;52.064;4.920;2024-02-15T08:26:28;18.30;;;12.10;;
42702;SDS011;28341;52.064;4.920;2024-02-15T08:28:33;15.63;;;11.60;;
42702;SDS011;28341;52.064;4.920;2024-02-15T08:30:39;17.40;;;12.38;;
42702;SDS011;28341;52.064;4.920;2024-02-15T08:32:44;16.67;;;11.05;;
42702;SDS011;28341;52.064;4.920;2024-02-15T08:34:45;16.27;;;10.30;;
42702;SDS011;28341;52.064;4.920;2024-02-15T08:36:50;15.88;;;11.00;;
42702;SDS011;28341;52.064;4.920;2024-02-15T08:38:55;15.50;;;10.77;;
42702;SDS011;28341;52.064;4.920;2024-02-15T08:41:00;15.95;;;10.27;;
42702;SDS011;28341;52.064;4.920;2024-02-15T08:43:05;16.20;;;10.10;;
42702;SDS011;28341;52.064;4.920;2024-02-15T08:45:10;13.95;;;9.93;;
42702;SDS011;28341;52.064;4.920;2024-02-15T08:47:15;16.13;;;10.10;;
42702;SDS011;28341;52.064;4.920;2024-02-15T08:49:19;14.38;;;9.73;;
42702;SDS011;28341;52.064;4.920;2024-02-15T08:51:24;14.98;;;9.68;;
42702;SDS011;28341;52.064;4.920;2024-02-15T08:53:28;16.98;;;10.27;;
42702;SDS011;28341;52.064;4.920;2024-02-15T08:55:33;20.35;;;10.10;;
42702;SDS011;28341;52.064;4.920;2024-02-15T08:57:38;16.85;;;9.45;;
42702;SDS011;28341;52.064;4.920;2024-02-15T08:59:44;16.55;;;9.18;;
42702;SDS011;28341;52.064;4.920;2024-02-15T09:01:50;19.80;;;9.30;;
42702;SDS011;28341;52.064;4.920;2024-02-15T09:03:57;17.95;;;9.60;;
42702;SDS011;28341;52.064;4.920;2024-02-15T09:06:01;19.08;;;9.63;;
42702;SDS011;28341;52.064;4.920;2024-02-15T09:08:08;19.85;;;9.57;;
42702;SDS011;28341;52.064;4.920;2024-02-15T09:10:12;18.08;;;9.38;;
42702;SDS011;28341;52.064;4.920;2024-02-15T09:12:17;16.92;;;8.73;;
42702;SDS011;28341;52.064;4.920;2024-02-15T09:14:23;15.63;;;8.35;;
42702;SDS011;28341;52.064;4.920;2024-02-15T09:16:27;18.23;;;7.97;;
42702;SDS011;28341;52.064;4.920;2024-02-15T09:18:34;16.50;;;8.38;;
42702;SDS011;28341;52.064;4.920;2024-02-15T09:20:43;21.25;;;7.63;;
42702;SDS011;28341;52.064;4.920;2024-02-15T09:22:55;18.02;;;8.48;;
42702;SDS011;28341;52.064;4.920;2024-02-15T09:25:05;23.77;;;10.43;;
42702;SDS011;28341;52.064;4.920;2024-02-15T09:27:13;19.30;;;10.00;;
42702;SDS011;28341;52.064;4.920;2024-02-15T09:29:17;22.45;;;9.20;;
42702;SDS011;28341;52.064;4.920;2024-02-15T09:31:23;18.20;;;9.50;;
42702;SDS011;28341;52.064;4.920;2024-02-15T09:33:28;15.85;;;8.07;;
42702;SDS011;28341;52.064;4.920;2024-02-15T09:35:32;13.82;;;7.35;;
42702;SDS011;28341;52.064;4.920;2024-02-15T09:37:42;20.13;;;8.32;;
42702;SDS011;28341;52.064;4.920;2024-02-15T09:39:49;18.90;;;7.90;;
42702;SDS011;28341;52.064;4.920;2024-02-15T09:41:55;15.38;;;8.05;;
42702;SDS011;28341;52.064;4.920;2024-02-15T09:43:59;17.92;;;7.55;;
42702;SDS011;28341;52.064;4.920;2024-02-15T09:46:04;15.90;;;7.38;;
42702;SDS011;28341;52.064;4.920;2024-02-15T09:48:10;16.55;;;7.38;;
42702;SDS011;28341;52.064;4.920;2024-02-15T09:50:18;20.10;;;8.73;;
42702;SDS011;28341;52.064;4.920;2024-02-15T09:52:22;15.57;;;7.43;;
42702;SDS011;28341;52.064;4.920;2024-02-15T09:54:29;16.27;;;7.55;;
42702;SDS011;28341;52.064;4.920;2024-02-15T09:56:34;17.17;;;7.78;;
42702;SDS011;28341;52.064;4.920;2024-02-15T09:58:39;22.75;;;12.93;;
42702;SDS011;28341;52.064;4.920;2024-02-15T10:00:43;17.50;;;7.97;;
42702;SDS011;28341;52.064;4.920;2024-02-15T10:02:49;16.23;;;8.75;;
42702;SDS011;28341;52.064;4.920;2024-02-15T10:04:56;20.38;;;10.80;;
42702;SDS011;28341;52.064;4.920;2024-02-15T10:07:00;18.83;;;7.85;;
42702;SDS011;28341;52.064;4.920;2024-02-15T10:11:37;13.70;;;7.25;;
42702;SDS011;28341;52.064;4.920;2024-02-15T10:13:41;14.95;;;7.22;;
42702;SDS011;28341;52.064;4.920;2024-02-15T10:15:46;16.70;;;6.68;;
42702;SDS011;28341;52.064;4.920;2024-02-15T10:17:53;19.33;;;8.15;;
42702;SDS011;28341;52.064;4.920;2024-02-15T10:20:05;15.40;;;7.78;;
42702;SDS011;28341;52.064;4.920;2024-02-15T10:22:12;13.48;;;6.55;;
42702;SDS011;28341;52.064;4.920;2024-02-15T10:24:18;15.50;;;7.43;;
42702;SDS011;28341;52.064;4.920;2024-02-15T10:26:25;14.40;;;6.60;;
42702;SDS011;28341;52.064;4.920;2024-02-15T10:28:30;15.15;;;6.68;;
42702;SDS011;28341;52.064;4.920;2024-02-15T10:30:34;17.00;;;7.03;;
42702;SDS011;28341;52.064;4.920;2024-02-15T10:32:40;12.60;;;6.45;;
42702;SDS011;28341;52.064;4.920;2024-02-15T10:34:45;13.88;;;6.07;;
42702;SDS011;28341;52.064;4.920;2024-02-15T10:36:49;20.60;;;6.50;;
42702;SDS011;28341;52.064;4.920;2024-02-15T10:38:53;12.70;;;5.30;;
42702;SDS011;28341;52.064;4.920;2024-02-15T10:41:18;14.45;;;5.60;;
42702;SDS011;28341;52.064;4.920;2024-02-15T10:43:25;15.73;;;6.10;;
42702;SDS011;28341;52.064;4.920;2024-02-15T10:45:30;15.25;;;6.10;;
42702;SDS011;28341;52.064;4.920;2024-02-15T10:47:37;12.18;;;6.53;;
42702;SDS011;28341;52.064;4.920;2024-02-15T10:49:38;13.47;;;6.83;;
42702;SDS011;28341;52.064;4.920;2024-02-15T10:51:43;14.30;;;6.25;;
42702;SDS011;28341;52.064;4.920;2024-02-15T10:53:47;15.43;;;6.05;;
42702;SDS011;28341;52.064;4.920;2024-02-15T10:55:59;16.27;;;6.75;;
42702;SDS011;28341;52.064;4.920;2024-02-15T10:58:11;13.30;;;6.68;;
42702;SDS011;28341;52.064;4.920;2024-02-15T11:00:19;14.43;;;6.70;;
42702;SDS011;28341;52.064;4.920;2024-02-15T11:02:26;13.07;;;6.57;;
42702;SDS011;28341;52.064;4.920;2024-02-15T11:04:35;18.00;;;7.07;;
42702;SDS011;28341;52.064;4.920;2024-02-15T11:06:39;11.35;;;7.00;;
42702;SDS011;28341;52.064;4.920;2024-02-15T11:08:44;15.20;;;6.60;;
42702;SDS011;28341;52.064;4.920;2024-02-15T11:10:48;15.25;;;6.82;;
42702;SDS011;28341;52.064;4.920;2024-02-15T11:12:54;14.23;;;7.95;;
42702;SDS011;28341;52.064;4.920;2024-02-15T11:14:59;16.77;;;6.43;;
42702;SDS011;28341;52.064;4.920;2024-02-15T11:17:06;14.63;;;6.47;;
42702;SDS011;28341;52.064;4.920;2024-02-15T11:19:20;10.98;;;6.22;;
42702;SDS011;28341;52.064;4.920;2024-02-15T11:21:53;11.38;;;6.68;;
42702;SDS011;28341;52.064;4.920;2024-02-15T11:23:57;13.57;;;6.82;;
42702;SDS011;28341;52.064;4.920;2024-02-15T11:26:01;11.65;;;6.00;;
42702;SDS011;28341;52.064;4.920;2024-02-15T11:30:40;17.50;;;8.90;;
42702;SDS011;28341;52.064;4.920;2024-02-15T11:32:49;11.68;;;6.30;;
42702;SDS011;28341;52.064;4.920;2024-02-15T11:35:00;12.13;;;6.88;;
42702;SDS011;28341;52.064;4.920;2024-02-15T11:39:58;15.65;;;7.75;;
42702;SDS011;28341;52.064;4.920;2024-02-15T11:44:29;16.15;;;7.97;;
42702;SDS011;28341;52.064;4.920;2024-02-15T11:46:36;15.00;;;8.52;;
42702;SDS011;28341;52.064;4.920;2024-02-15T11:48:44;14.90;;;8.98;;
42702;SDS011;28341;52.064;4.920;2024-02-15T11:50:46;15.57;;;8.45;;
42702;SDS011;28341;52.064;4.920;2024-02-15T11:52:52;15.05;;;8.00;;
42702;SDS011;28341;52.064;4.920;2024-02-15T11:55:09;11.02;;;7.20;;
42702;SDS011;28341;52.064;4.920;2024-02-15T11:57:14;12.20;;;7.95;;
42702;SDS011;28341;52.064;4.920;2024-02-15T11:59:40;13.32;;;8.20;;
42702;SDS011;28341;52.064;4.920;2024-02-15T12:01:53;14.50;;;8.75;;
42702;SDS011;28341;52.064;4.920;2024-02-15T12:04:14;15.45;;;8.52;;
42702;SDS011;28341;52.064;4.920;2024-02-15T12:06:30;11.63;;;8.40;;
42702;SDS011;28341;52.064;4.920;2024-02-15T12:08:48;13.18;;;9.70;;
42702;SDS011;28341;52.064;4.920;2024-02-15T12:11:06;16.23;;;11.02;;
42702;SDS011;28341;52.064;4.920;2024-02-15T12:13:23;13.23;;;10.48;;
42702;SDS011;28341;52.064;4.920;2024-02-15T12:15:39;13.93;;;10.35;;
42702;SDS011;28341;52.064;4.920;2024-02-15T12:18:06;14.38;;;10.35;;
42702;SDS011;28341;52.064;4.920;2024-02-15T12:20:32;15.63;;;9.43;;
42702;SDS011;28341;52.064;4.920;2024-02-15T12:22:40;11.77;;;9.35;;
42702;SDS011;28341;52.064;4.920;2024-02-15T12:24:54;13.95;;;9.43;;
42702;SDS011;28341;52.064;4.920;2024-02-15T12:27:00;11.40;;;9.27;;
42702;SDS011;28341;52.064;4.920;2024-02-15T12:29:05;12.05;;;9.05;;
42702;SDS011;28341;52.064;4.920;2024-02-15T12:31:12;12.60;;;9.95;;